sensor_id;sensor_type;location;lat;lon;timestamp;P1;P2;P0
72793;PMS5003;63436;26.334;50.194;2022-10-31T00:01:16;81;78;
72793;PMS5003;63436;26.334;50.194;2022-10-31T00:03:41;73;68;
72793;PMS5003;63436;26.334;50.194;2022-10-31T00:06:06;75;73;
72793;PMS5003;63436;26.334;50.194;2022-10-31T00:08:31;72;70;
72793;PMS5003;63436;26.334;50.194;2022-10-31T00:10:56;76;72;
72793;PMS5003;63436;26.334;50.194;2022-10-31T00:13:22;81;74;
72793;PMS5003;63436;26.334;50.194;2022-10-31T00:15:49;77;76;
72793;PMS5003;63436;26.334;50.194;2022-10-31T00:18:13;82;79;
72793;PMS5003;63436;26.334;50.194;2022-10-31T00:20:40;75;74;
72793;PMS5003;63436;26.334;50.194;2022-10-31T00:23:04;67;64;
72793;PMS5003;63436;26.334;50.194;2022-10-31T00:25:35;74;73;
72793;PMS5003;63436;26.334;50.194;2022-10-31T00:27:57;82;78;
72793;PMS5003;63436;26.334;50.194;2022-10-31T00:30:20;77;74;
72793;PMS5003;63436;26.334;50.194;2022-10-31T00:32:46;77;72;
72793;PMS5003;63436;26.334;50.194;2022-10-31T00:35:11;76;70;
72793;PMS5003;63436;26.334;50.194;2022-10-31T00:37:36;75;74;
72793;PMS5003;63436;26.334;50.194;2022-10-31T00:40:02;76;71;
72793;PMS5003;63436;26.334;50.194;2022-10-31T00:42:27;80;75;
72793;PMS5003;63436;26.334;50.194;2022-10-31T00:44:53;82;79;
72793;PMS5003;63436;26.334;50.194;2022-10-31T00:47:19;75;68;
72793;PMS5003;63436;26.334;50.194;2022-10-31T00:49:44;69;68;
72793;PMS5003;63436;26.334;50.194;2022-10-31T00:52:09;75;71;
72793;PMS5003;63436;26.334;50.194;2022-10-31T00:54:34;73;71;
72793;PMS5003;63436;26.334;50.194;2022-10-31T00:56:59;74;68;
72793;PMS5003;63436;26.334;50.194;2022-10-31T00:59:25;79;73;
72793;PMS5003;63436;26.334;50.194;2022-10-31T01:01:50;71;69;
72793;PMS5003;63436;26.334;50.194;2022-10-31T01:04:16;70;67;
72793;PMS5003;63436;26.334;50.194;2022-10-31T01:06:42;68;67;
72793;PMS5003;63436;26.334;50.194;2022-10-31T01:09:08;70;68;
72793;PMS5003;63436;26.334;50.194;2022-10-31T01:11:33;76;73;
72793;PMS5003;63436;26.334;50.194;2022-10-31T01:13:59;72;68;
72793;PMS5003;63436;26.334;50.194;2022-10-31T01:16:25;67;64;
72793;PMS5003;63436;26.334;50.194;2022-10-31T01:18:50;73;70;
72793;PMS5003;63436;26.334;50.194;2022-10-31T01:21:16;73;70;
72793;PMS5003;63436;26.334;50.194;2022-10-31T01:23:40;71;67;
72793;PMS5003;63436;26.334;50.194;2022-10-31T01:26:07;68;67;
72793;PMS5003;63436;26.334;50.194;2022-10-31T01:28:31;66;65;
72793;PMS5003;63436;26.334;50.194;2022-10-31T01:30:59;71;68;
72793;PMS5003;63436;26.334;50.194;2022-10-31T01:33:21;69;68;
72793;PMS5003;63436;26.334;50.194;2022-10-31T01:35:47;73;69;
72793;PMS5003;63436;26.334;50.194;2022-10-31T01:38:12;76;72;
72793;PMS5003;63436;26.334;50.194;2022-10-31T01:40:37;76;72;
72793;PMS5003;63436;26.334;50.194;2022-10-31T01:43:03;78;74;
72793;PMS5003;63436;26.334;50.194;2022-10-31T01:45:27;66;65;
72793;PMS5003;63436;26.334;50.194;2022-10-31T01:47:53;73;69;
72793;PMS5003;63436;26.334;50.194;2022-10-31T01:50:23;78;73;
72793;PMS5003;63436;26.334;50.194;2022-10-31T01:52:44;70;63;
72793;PMS5003;63436;26.334;50.194;2022-10-31T01:55:10;68;67;
72793;PMS5003;63436;26.334;50.194;2022-10-31T01:57:35;72;69;
72793;PMS5003;63436;26.334;50.194;2022-10-31T02:00:02;76;73;
72793;PMS5003;63436;26.334;50.194;2022-10-31T02:02:25;77;72;
72793;PMS5003;63436;26.334;50.194;2022-10-31T02:04:51;76;74;
72793;PMS5003;63436;26.334;50.194;2022-10-31T02:07:17;69;67;
72793;PMS5003;63436;26.334;50.194;2022-10-31T02:09:42;73;68;
72793;PMS5003;63436;26.334;50.194;2022-10-31T02:12:07;74;70;
72793;PMS5003;63436;26.334;50.194;2022-10-31T02:14:32;72;68;
72793;PMS5003;63436;26.334;50.194;2022-10-31T02:16:58;79;73;
72793;PMS5003;63436;26.334;50.194;2022-10-31T02:19:25;81;76;
72793;PMS5003;63436;26.334;50.194;2022-10-31T02:21:49;76;72;
72793;PMS5003;63436;26.334;50.194;2022-10-31T02:26:46;77;73;
72793;PMS5003;63436;26.334;50.194;2022-10-31T02:29:12;74;72;
72793;PMS5003;63436;26.334;50.194;2022-10-31T02:31:33;76;67;
72793;PMS5003;63436;26.334;50.194;2022-10-31T02:33:58;74;74;
72793;PMS5003;63436;26.334;50.194;2022-10-31T02:36:23;74;70;
72793;PMS5003;63436;26.334;50.194;2022-10-31T02:38:50;75;72;
72793;PMS5003;63436;26.334;50.194;2022-10-31T02:41:15;74;71;
72793;PMS5003;63436;26.334;50.194;2022-10-31T02:43:40;85;74;
72793;PMS5003;63436;26.334;50.194;2022-10-31T02:46:04;86;79;
72793;PMS5003;63436;26.334;50.194;2022-10-31T02:48:30;83;78;
72793;PMS5003;63436;26.334;50.194;2022-10-31T02:50:55;88;80;
72793;PMS5003;63436;26.334;50.194;2022-10-31T02:53:20;78;78;
72793;PMS5003;63436;26.334;50.194;2022-10-31T02:55:49;81;74;
72793;PMS5003;63436;26.334;50.194;2022-10-31T02:58:12;82;76;
72793;PMS5003;63436;26.334;50.194;2022-10-31T03:00:38;84;75;
72793;PMS5003;63436;26.334;50.194;2022-10-31T03:03:03;83;77;
72793;PMS5003;63436;26.334;50.194;2022-10-31T03:05:35;80;74;
72793;PMS5003;63436;26.334;50.194;2022-10-31T03:07:56;82;77;
72793;PMS5003;63436;26.334;50.194;2022-10-31T03:10:22;75;73;
72793;PMS5003;63436;26.334;50.194;2022-10-31T03:12:47;75;68;
72793;PMS5003;63436;26.334;50.194;2022-10-31T03:15:13;91;83;
72793;PMS5003;63436;26.334;50.194;2022-10-31T03:17:36;80;76;
72793;PMS5003;63436;26.334;50.194;2022-10-31T03:20:02;79;76;
72793;PMS5003;63436;26.334;50.194;2022-10-31T03:22:27;84;75;
72793;PMS5003;63436;26.334;50.194;2022-10-31T03:24:53;73;72;
72793;PMS5003;63436;26.334;50.194;2022-10-31T03:27:20;89;87;
72793;PMS5003;63436;26.334;50.194;2022-10-31T03:29:44;88;83;
72793;PMS5003;63436;26.334;50.194;2022-10-31T03:32:10;84;78;
72793;PMS5003;63436;26.334;50.194;2022-10-31T03:34:34;86;83;
72793;PMS5003;63436;26.334;50.194;2022-10-31T03:37:01;89;85;
72793;PMS5003;63436;26.334;50.194;2022-10-31T03:39:25;89;86;
72793;PMS5003;63436;26.334;50.194;2022-10-31T03:41:53;93;90;
72793;PMS5003;63436;26.334;50.194;2022-10-31T03:44:17;85;81;
72793;PMS5003;63436;26.334;50.194;2022-10-31T03:46:41;83;78;
72793;PMS5003;63436;26.334;50.194;2022-10-31T03:49:06;85;84;
72793;PMS5003;63436;26.334;50.194;2022-10-31T03:51:32;86;83;
72793;PMS5003;63436;26.334;50.194;2022-10-31T03:53:57;91;88;
72793;PMS5003;63436;26.334;50.194;2022-10-31T03:56:24;98;88;
72793;PMS5003;63436;26.334;50.194;2022-10-31T03:58:48;91;86;
72793;PMS5003;63436;26.334;50.194;2022-10-31T04:01:14;87;84;
72793;PMS5003;63436;26.334;50.194;2022-10-31T04:03:38;88;82;
72793;PMS5003;63436;26.334;50.194;2022-10-31T04:06:05;93;88;
72793;PMS5003;63436;26.334;50.194;2022-10-31T04:08:29;93;82;
72793;PMS5003;63436;26.334;50.194;2022-10-31T04:10:55;97;88;
72793;PMS5003;63436;26.334;50.194;2022-10-31T04:13:20;91;89;
72793;PMS5003;63436;26.334;50.194;2022-10-31T04:15:45;83;83;
72793;PMS5003;63436;26.334;50.194;2022-10-31T04:18:11;91;82;
72793;PMS5003;63436;26.334;50.194;2022-10-31T04:20:37;97;90;
72793;PMS5003;63436;26.334;50.194;2022-10-31T04:23:01;95;91;
72793;PMS5003;63436;26.334;50.194;2022-10-31T04:25:27;89;88;
72793;PMS5003;63436;26.334;50.194;2022-10-31T04:27:52;93;88;
72793;PMS5003;63436;26.334;50.194;2022-10-31T04:30:17;102;94;
72793;PMS5003;63436;26.334;50.194;2022-10-31T04:32:43;92;85;
72793;PMS5003;63436;26.334;50.194;2022-10-31T04:35:08;92;90;
72793;PMS5003;63436;26.334;50.194;2022-10-31T04:37:33;87;85;
72793;PMS5003;63436;26.334;50.194;2022-10-31T04:39:59;91;84;
72793;PMS5003;63436;26.334;50.194;2022-10-31T04:42:25;84;78;
72793;PMS5003;63436;26.334;50.194;2022-10-31T04:44:51;93;89;
72793;PMS5003;63436;26.334;50.194;2022-10-31T04:47:16;90;86;
72793;PMS5003;63436;26.334;50.194;2022-10-31T04:49:41;89;85;
72793;PMS5003;63436;26.334;50.194;2022-10-31T04:52:07;90;87;
72793;PMS5003;63436;26.334;50.194;2022-10-31T04:54:33;96;90;
72793;PMS5003;63436;26.334;50.194;2022-10-31T04:56:58;88;86;
72793;PMS5003;63436;26.334;50.194;2022-10-31T04:59:23;90;83;
72793;PMS5003;63436;26.334;50.194;2022-10-31T05:01:48;85;80;
72793;PMS5003;63436;26.334;50.194;2022-10-31T05:04:14;90;87;
72793;PMS5003;63436;26.334;50.194;2022-10-31T05:06:40;90;81;
72793;PMS5003;63436;26.334;50.194;2022-10-31T05:09:05;95;87;
72793;PMS5003;63436;26.334;50.194;2022-10-31T05:11:30;93;86;
72793;PMS5003;63436;26.334;50.194;2022-10-31T05:13:56;88;81;
72793;PMS5003;63436;26.334;50.194;2022-10-31T05:16:22;88;82;
72793;PMS5003;63436;26.334;50.194;2022-10-31T05:18:47;95;89;
72793;PMS5003;63436;26.334;50.194;2022-10-31T05:21:13;89;86;
72793;PMS5003;63436;26.334;50.194;2022-10-31T05:23:38;89;87;
72793;PMS5003;63436;26.334;50.194;2022-10-31T05:26:03;94;86;
72793;PMS5003;63436;26.334;50.194;2022-10-31T05:28:29;92;87;
72793;PMS5003;63436;26.334;50.194;2022-10-31T05:30:55;99;87;
72793;PMS5003;63436;26.334;50.194;2022-10-31T05:33:20;94;88;
72793;PMS5003;63436;26.334;50.194;2022-10-31T05:35:45;92;86;
72793;PMS5003;63436;26.334;50.194;2022-10-31T05:38:10;98;94;
72793;PMS5003;63436;26.334;50.194;2022-10-31T05:40:36;87;83;
72793;PMS5003;63436;26.334;50.194;2022-10-31T05:43:01;92;82;
72793;PMS5003;63436;26.334;50.194;2022-10-31T05:45:27;100;92;
72793;PMS5003;63436;26.334;50.194;2022-10-31T05:47:52;82;80;
72793;PMS5003;63436;26.334;50.194;2022-10-31T05:50:17;87;86;
72793;PMS5003;63436;26.334;50.194;2022-10-31T05:52:43;86;81;
72793;PMS5003;63436;26.334;50.194;2022-10-31T05:55:08;87;80;
72793;PMS5003;63436;26.334;50.194;2022-10-31T05:57:33;92;87;
72793;PMS5003;63436;26.334;50.194;2022-10-31T05:59:59;86;81;
72793;PMS5003;63436;26.334;50.194;2022-10-31T06:02:25;83;80;
72793;PMS5003;63436;26.334;50.194;2022-10-31T06:04:51;88;85;
72793;PMS5003;63436;26.334;50.194;2022-10-31T06:07:16;87;81;
72793;PMS5003;63436;26.334;50.194;2022-10-31T06:09:42;96;90;
72793;PMS5003;63436;26.334;50.194;2022-10-31T06:12:07;86;83;
72793;PMS5003;63436;26.334;50.194;2022-10-31T06:14:32;87;85;
72793;PMS5003;63436;26.334;50.194;2022-10-31T06:16:58;85;78;
72793;PMS5003;63436;26.334;50.194;2022-10-31T06:19:23;83;79;
72793;PMS5003;63436;26.334;50.194;2022-10-31T06:21:49;77;75;
72793;PMS5003;63436;26.334;50.194;2022-10-31T06:24:15;78;77;
72793;PMS5003;63436;26.334;50.194;2022-10-31T06:26:40;83;78;
72793;PMS5003;63436;26.334;50.194;2022-10-31T06:29:06;83;80;
72793;PMS5003;63436;26.334;50.194;2022-10-31T06:31:30;86;80;
72793;PMS5003;63436;26.334;50.194;2022-10-31T06:33:56;83;76;
72793;PMS5003;63436;26.334;50.194;2022-10-31T06:36:21;93;84;
72793;PMS5003;63436;26.334;50.194;2022-10-31T06:38:46;82;77;
72793;PMS5003;63436;26.334;50.194;2022-10-31T06:41:12;80;75;
72793;PMS5003;63436;26.334;50.194;2022-10-31T06:43:38;81;75;
72793;PMS5003;63436;26.334;50.194;2022-10-31T06:46:04;77;72;
72793;PMS5003;63436;26.334;50.194;2022-10-31T06:48:29;85;78;
72793;PMS5003;63436;26.334;50.194;2022-10-31T06:50:57;78;75;
72793;PMS5003;63436;26.334;50.194;2022-10-31T07:05:27;82;78;
72793;PMS5003;63436;26.334;50.194;2022-10-31T07:07:52;82;80;
72793;PMS5003;63436;26.334;50.194;2022-10-31T07:10:18;77;71;
72793;PMS5003;63436;26.334;50.194;2022-10-31T07:12:43;76;73;
72793;PMS5003;63436;26.334;50.194;2022-10-31T07:15:10;77;71;
72793;PMS5003;63436;26.334;50.194;2022-10-31T07:17:35;85;80;
72793;PMS5003;63436;26.334;50.194;2022-10-31T07:20:00;77;70;
72793;PMS5003;63436;26.334;50.194;2022-10-31T07:24:51;78;70;
72793;PMS5003;63436;26.334;50.194;2022-10-31T07:27:17;84;78;
72793;PMS5003;63436;26.334;50.194;2022-10-31T07:29:42;84;77;
72793;PMS5003;63436;26.334;50.194;2022-10-31T07:32:08;82;79;
72793;PMS5003;63436;26.334;50.194;2022-10-31T07:34:33;77;77;
72793;PMS5003;63436;26.334;50.194;2022-10-31T07:36:58;75;72;
72793;PMS5003;63436;26.334;50.194;2022-10-31T07:39:24;88;83;
72793;PMS5003;63436;26.334;50.194;2022-10-31T07:41:50;83;80;
72793;PMS5003;63436;26.334;50.194;2022-10-31T07:44:15;82;78;
72793;PMS5003;63436;26.334;50.194;2022-10-31T07:46:40;79;75;
72793;PMS5003;63436;26.334;50.194;2022-10-31T07:49:06;81;76;
72793;PMS5003;63436;26.334;50.194;2022-10-31T07:51:31;83;76;
72793;PMS5003;63436;26.334;50.194;2022-10-31T07:53:56;83;78;
72793;PMS5003;63436;26.334;50.194;2022-10-31T07:56:22;78;75;
72793;PMS5003;63436;26.334;50.194;2022-10-31T07:58:47;81;74;
72793;PMS5003;63436;26.334;50.194;2022-10-31T08:01:13;81;78;
72793;PMS5003;63436;26.334;50.194;2022-10-31T08:03:38;78;70;
72793;PMS5003;63436;26.334;50.194;2022-10-31T08:06:04;74;71;
72793;PMS5003;63436;26.334;50.194;2022-10-31T08:08:29;77;76;
72793;PMS5003;63436;26.334;50.194;2022-10-31T08:10:54;71;69;
72793;PMS5003;63436;26.334;50.194;2022-10-31T08:13:19;78;75;
72793;PMS5003;63436;26.334;50.194;2022-10-31T08:15:45;72;71;
72793;PMS5003;63436;26.334;50.194;2022-10-31T08:18:11;79;76;
72793;PMS5003;63436;26.334;50.194;2022-10-31T08:20:36;72;69;
72793;PMS5003;63436;26.334;50.194;2022-10-31T08:23:02;78;73;
72793;PMS5003;63436;26.334;50.194;2022-10-31T08:25:28;70;67;
72793;PMS5003;63436;26.334;50.194;2022-10-31T08:27:52;73;66;
72793;PMS5003;63436;26.334;50.194;2022-10-31T08:30:17;70;64;
72793;PMS5003;63436;26.334;50.194;2022-10-31T08:32:42;69;66;
72793;PMS5003;63436;26.334;50.194;2022-10-31T08:35:08;62;61;
72793;PMS5003;63436;26.334;50.194;2022-10-31T08:37:34;67;62;
72793;PMS5003;63436;26.334;50.194;2022-10-31T08:39:59;71;66;
72793;PMS5003;63436;26.334;50.194;2022-10-31T08:42:25;72;67;
72793;PMS5003;63436;26.334;50.194;2022-10-31T08:44:50;66;61;
72793;PMS5003;63436;26.334;50.194;2022-10-31T08:47:15;68;65;
72793;PMS5003;63436;26.334;50.194;2022-10-31T08:49:40;64;60;
72793;PMS5003;63436;26.334;50.194;2022-10-31T08:52:06;58;58;
72793;PMS5003;63436;26.334;50.194;2022-10-31T08:54:31;62;59;
72793;PMS5003;63436;26.334;50.194;2022-10-31T08:56:57;63;59;
72793;PMS5003;63436;26.334;50.194;2022-10-31T08:59:23;66;62;
72793;PMS5003;63436;26.334;50.194;2022-10-31T09:01:48;65;63;
72793;PMS5003;63436;26.334;50.194;2022-10-31T09:04:14;59;56;
72793;PMS5003;63436;26.334;50.194;2022-10-31T09:06:39;60;58;
72793;PMS5003;63436;26.334;50.194;2022-10-31T09:09:05;58;55;
72793;PMS5003;63436;26.334;50.194;2022-10-31T09:11:31;65;63;
72793;PMS5003;63436;26.334;50.194;2022-10-31T09:13:56;71;68;
72793;PMS5003;63436;26.334;50.194;2022-10-31T09:16:21;67;67;
72793;PMS5003;63436;26.334;50.194;2022-10-31T09:18:47;60;59;
72793;PMS5003;63436;26.334;50.194;2022-10-31T09:21:12;62;61;
72793;PMS5003;63436;26.334;50.194;2022-10-31T09:23:38;64;56;
72793;PMS5003;63436;26.334;50.194;2022-10-31T09:26:04;68;63;
72793;PMS5003;63436;26.334;50.194;2022-10-31T09:28:29;58;54;
72793;PMS5003;63436;26.334;50.194;2022-10-31T09:30:55;65;63;
72793;PMS5003;63436;26.334;50.194;2022-10-31T09:33:20;65;64;
72793;PMS5003;63436;26.334;50.194;2022-10-31T09:35:46;67;62;
72793;PMS5003;63436;26.334;50.194;2022-10-31T09:38:12;64;59;
72793;PMS5003;63436;26.334;50.194;2022-10-31T09:40:37;68;65;
72793;PMS5003;63436;26.334;50.194;2022-10-31T09:43:05;69;64;
72793;PMS5003;63436;26.334;50.194;2022-10-31T09:45:29;73;70;
72793;PMS5003;63436;26.334;50.194;2022-10-31T09:47:57;76;75;
72793;PMS5003;63436;26.334;50.194;2022-10-31T09:50:19;76;75;
72793;PMS5003;63436;26.334;50.194;2022-10-31T09:52:47;75;68;
72793;PMS5003;63436;26.334;50.194;2022-10-31T09:55:13;88;81;
72793;PMS5003;63436;26.334;50.194;2022-10-31T09:57:40;81;76;
72793;PMS5003;63436;26.334;50.194;2022-10-31T10:00:00;81;78;
72793;PMS5003;63436;26.334;50.194;2022-10-31T10:02:27;80;77;
72793;PMS5003;63436;26.334;50.194;2022-10-31T10:04:53;81;78;
72793;PMS5003;63436;26.334;50.194;2022-10-31T10:07:19;86;81;
72793;PMS5003;63436;26.334;50.194;2022-10-31T10:09:42;81;80;
72793;PMS5003;63436;26.334;50.194;2022-10-31T10:12:12;81;79;
72793;PMS5003;63436;26.334;50.194;2022-10-31T10:14:38;87;82;
72793;PMS5003;63436;26.334;50.194;2022-10-31T10:17:02;81;77;
72793;PMS5003;63436;26.334;50.194;2022-10-31T10:19:28;88;80;
72793;PMS5003;63436;26.334;50.194;2022-10-31T10:21:50;80;77;
72793;PMS5003;63436;26.334;50.194;2022-10-31T10:24:19;79;77;
72793;PMS5003;63436;26.334;50.194;2022-10-31T10:26:41;84;77;
72793;PMS5003;63436;26.334;50.194;2022-10-31T10:29:10;85;83;
72793;PMS5003;63436;26.334;50.194;2022-10-31T10:31:32;93;87;
72793;PMS5003;63436;26.334;50.194;2022-10-31T10:34:01;85;81;
72793;PMS5003;63436;26.334;50.194;2022-10-31T10:36:25;86;83;
72793;PMS5003;63436;26.334;50.194;2022-10-31T10:38:49;90;85;
72793;PMS5003;63436;26.334;50.194;2022-10-31T10:41:16;79;77;
72793;PMS5003;63436;26.334;50.194;2022-10-31T10:43:39;89;87;
72793;PMS5003;63436;26.334;50.194;2022-10-31T10:46:12;87;83;
72793;PMS5003;63436;26.334;50.194;2022-10-31T10:48:33;91;89;
72793;PMS5003;63436;26.334;50.194;2022-10-31T10:50:56;86;82;
72793;PMS5003;63436;26.334;50.194;2022-10-31T10:53:25;93;85;
72793;PMS5003;63436;26.334;50.194;2022-10-31T10:55:49;87;83;
72793;PMS5003;63436;26.334;50.194;2022-10-31T10:58:12;89;85;
72793;PMS5003;63436;26.334;50.194;2022-10-31T11:00:40;90;86;
72793;PMS5003;63436;26.334;50.194;2022-10-31T11:03:04;89;85;
72793;PMS5003;63436;26.334;50.194;2022-10-31T11:05:33;92;87;
72793;PMS5003;63436;26.334;50.194;2022-10-31T11:07:54;93;90;
72793;PMS5003;63436;26.334;50.194;2022-10-31T11:10:20;94;87;
72793;PMS5003;63436;26.334;50.194;2022-10-31T11:12:56;92;89;
72793;PMS5003;63436;26.334;50.194;2022-10-31T11:17:37;104;96;
72793;PMS5003;63436;26.334;50.194;2022-10-31T11:20:03;94;93;
72793;PMS5003;63436;26.334;50.194;2022-10-31T11:22:27;95;91;
72793;PMS5003;63436;26.334;50.194;2022-10-31T11:24:52;92;89;
72793;PMS5003;63436;26.334;50.194;2022-10-31T11:27:20;98;95;
72793;PMS5003;63436;26.334;50.194;2022-10-31T11:29:44;91;90;
72793;PMS5003;63436;26.334;50.194;2022-10-31T11:34:36;93;87;
72793;PMS5003;63436;26.334;50.194;2022-10-31T11:37:02;93;84;
72793;PMS5003;63436;26.334;50.194;2022-10-31T11:39:26;87;85;
72793;PMS5003;63436;26.334;50.194;2022-10-31T11:41:52;81;81;
72793;PMS5003;63436;26.334;50.194;2022-10-31T11:44:17;96;91;
72793;PMS5003;63436;26.334;50.194;2022-10-31T11:46:43;94;90;
72793;PMS5003;63436;26.334;50.194;2022-10-31T11:49:13;91;90;
72793;PMS5003;63436;26.334;50.194;2022-10-31T11:51:33;86;83;
72793;PMS5003;63436;26.334;50.194;2022-10-31T11:53:59;88;88;
72793;PMS5003;63436;26.334;50.194;2022-10-31T11:56:24;87;86;
72793;PMS5003;63436;26.334;50.194;2022-10-31T11:58:55;82;79;
72793;PMS5003;63436;26.334;50.194;2022-10-31T12:03:43;93;89;
72793;PMS5003;63436;26.334;50.194;2022-10-31T12:06:07;84;83;
72793;PMS5003;63436;26.334;50.194;2022-10-31T12:08:33;91;89;
72793;PMS5003;63436;26.334;50.194;2022-10-31T12:10:58;89;85;
72793;PMS5003;63436;26.334;50.194;2022-10-31T12:13:31;86;84;
72793;PMS5003;63436;26.334;50.194;2022-10-31T12:15:50;93;89;
72793;PMS5003;63436;26.334;50.194;2022-10-31T12:18:27;78;74;
72793;PMS5003;63436;26.334;50.194;2022-10-31T12:20:40;80;76;
72793;PMS5003;63436;26.334;50.194;2022-10-31T12:23:06;84;79;
72793;PMS5003;63436;26.334;50.194;2022-10-31T12:25:33;79;79;
72793;PMS5003;63436;26.334;50.194;2022-10-31T12:27:59;84;79;
72793;PMS5003;63436;26.334;50.194;2022-10-31T12:30:21;86;81;
72793;PMS5003;63436;26.334;50.194;2022-10-31T12:32:55;84;78;
72793;PMS5003;63436;26.334;50.194;2022-10-31T12:35:21;84;82;
72793;PMS5003;63436;26.334;50.194;2022-10-31T12:37:42;83;74;
72793;PMS5003;63436;26.334;50.194;2022-10-31T12:40:06;78;76;
72793;PMS5003;63436;26.334;50.194;2022-10-31T12:42:35;80;79;
72793;PMS5003;63436;26.334;50.194;2022-10-31T12:45:07;74;69;
72793;PMS5003;63436;26.334;50.194;2022-10-31T12:47:25;77;74;
72793;PMS5003;63436;26.334;50.194;2022-10-31T12:49:47;75;74;
72793;PMS5003;63436;26.334;50.194;2022-10-31T12:52:15;71;69;
72793;PMS5003;63436;26.334;50.194;2022-10-31T12:54:39;79;74;
72793;PMS5003;63436;26.334;50.194;2022-10-31T12:57:03;69;65;
72793;PMS5003;63436;26.334;50.194;2022-10-31T12:59:28;66;65;
72793;PMS5003;63436;26.334;50.194;2022-10-31T13:01:53;68;61;
72793;PMS5003;63436;26.334;50.194;2022-10-31T13:04:18;66;64;
72793;PMS5003;63436;26.334;50.194;2022-10-31T13:06:43;65;60;
72793;PMS5003;63436;26.334;50.194;2022-10-31T13:09:09;63;62;
72793;PMS5003;63436;26.334;50.194;2022-10-31T13:11:34;60;54;
72793;PMS5003;63436;26.334;50.194;2022-10-31T13:14:00;65;63;
72793;PMS5003;63436;26.334;50.194;2022-10-31T13:16:25;64;60;
72793;PMS5003;63436;26.334;50.194;2022-10-31T13:18:52;63;62;
72793;PMS5003;63436;26.334;50.194;2022-10-31T13:21:17;61;61;
72793;PMS5003;63436;26.334;50.194;2022-10-31T13:23:41;60;57;
72793;PMS5003;63436;26.334;50.194;2022-10-31T13:26:08;66;61;
72793;PMS5003;63436;26.334;50.194;2022-10-31T13:28:34;68;62;
72793;PMS5003;63436;26.334;50.194;2022-10-31T13:30:57;64;61;
72793;PMS5003;63436;26.334;50.194;2022-10-31T13:33:23;67;63;
72793;PMS5003;63436;26.334;50.194;2022-10-31T13:35:48;67;63;
72793;PMS5003;63436;26.334;50.194;2022-10-31T13:38:16;65;64;
72793;PMS5003;63436;26.334;50.194;2022-10-31T13:40:40;70;67;
72793;PMS5003;63436;26.334;50.194;2022-10-31T13:43:05;62;62;
72793;PMS5003;63436;26.334;50.194;2022-10-31T13:45:28;74;68;
72793;PMS5003;63436;26.334;50.194;2022-10-31T13:47:55;65;64;
72793;PMS5003;63436;26.334;50.194;2022-10-31T13:50:20;68;64;
72793;PMS5003;63436;26.334;50.194;2022-10-31T13:52:44;73;66;
72793;PMS5003;63436;26.334;50.194;2022-10-31T13:57:37;67;65;
72793;PMS5003;63436;26.334;50.194;2022-10-31T14:00:03;63;61;
72793;PMS5003;63436;26.334;50.194;2022-10-31T14:02:28;68;64;
72793;PMS5003;63436;26.334;50.194;2022-10-31T14:04:54;74;67;
72793;PMS5003;63436;26.334;50.194;2022-10-31T14:07:18;64;60;
72793;PMS5003;63436;26.334;50.194;2022-10-31T14:12:09;67;66;
72793;PMS5003;63436;26.334;50.194;2022-10-31T14:14:41;66;64;
72793;PMS5003;63436;26.334;50.194;2022-10-31T14:17:00;69;63;
72793;PMS5003;63436;26.334;50.194;2022-10-31T14:19:25;68;66;
72793;PMS5003;63436;26.334;50.194;2022-10-31T14:21:51;71;69;
72793;PMS5003;63436;26.334;50.194;2022-10-31T14:31:34;80;76;
72793;PMS5003;63436;26.334;50.194;2022-10-31T14:33:57;100;92;
72793;PMS5003;63436;26.334;50.194;2022-10-31T14:36:24;96;91;
72793;PMS5003;63436;26.334;50.194;2022-10-31T14:38:50;100;94;
72793;PMS5003;63436;26.334;50.194;2022-10-31T14:41:21;115;109;
72793;PMS5003;63436;26.334;50.194;2022-10-31T14:43:46;105;101;
72793;PMS5003;63436;26.334;50.194;2022-10-31T14:46:06;122;115;
72793;PMS5003;63436;26.334;50.194;2022-10-31T14:50:56;114;111;
72793;PMS5003;63436;26.334;50.194;2022-10-31T14:53:23;117;113;
72793;PMS5003;63436;26.334;50.194;2022-10-31T14:55:48;126;118;
72793;PMS5003;63436;26.334;50.194;2022-10-31T14:58:15;128;122;
72793;PMS5003;63436;26.334;50.194;2022-10-31T15:00:38;140;132;
72793;PMS5003;63436;26.334;50.194;2022-10-31T15:03:05;130;125;
72793;PMS5003;63436;26.334;50.194;2022-10-31T15:05:29;136;127;
72793;PMS5003;63436;26.334;50.194;2022-10-31T15:07:55;135;129;
72793;PMS5003;63436;26.334;50.194;2022-10-31T15:10:22;136;134;
72793;PMS5003;63436;26.334;50.194;2022-10-31T15:12:46;136;131;
72793;PMS5003;63436;26.334;50.194;2022-10-31T15:15:11;135;133;
72793;PMS5003;63436;26.334;50.194;2022-10-31T15:17:41;129;124;
72793;PMS5003;63436;26.334;50.194;2022-10-31T15:20:03;134;130;
72793;PMS5003;63436;26.334;50.194;2022-10-31T15:22:28;135;127;
72793;PMS5003;63436;26.334;50.194;2022-10-31T15:24:53;127;123;
72793;PMS5003;63436;26.334;50.194;2022-10-31T15:27:19;136;129;
72793;PMS5003;63436;26.334;50.194;2022-10-31T15:29:47;131;124;
72793;PMS5003;63436;26.334;50.194;2022-10-31T15:34:37;138;129;
72793;PMS5003;63436;26.334;50.194;2022-10-31T15:37:00;130;130;
72793;PMS5003;63436;26.334;50.194;2022-10-31T15:39:26;122;121;
72793;PMS5003;63436;26.334;50.194;2022-10-31T15:41:52;128;125;
72793;PMS5003;63436;26.334;50.194;2022-10-31T15:44:19;124;118;
72793;PMS5003;63436;26.334;50.194;2022-10-31T15:46:43;123;117;
72793;PMS5003;63436;26.334;50.194;2022-10-31T15:49:15;121;116;
72793;PMS5003;63436;26.334;50.194;2022-10-31T15:51:33;130;119;
72793;PMS5003;63436;26.334;50.194;2022-10-31T15:53:59;126;117;
72793;PMS5003;63436;26.334;50.194;2022-10-31T15:56:25;122;116;
72793;PMS5003;63436;26.334;50.194;2022-10-31T15:58:50;117;113;
72793;PMS5003;63436;26.334;50.194;2022-10-31T16:01:20;113;109;
72793;PMS5003;63436;26.334;50.194;2022-10-31T16:03:41;110;109;
72793;PMS5003;63436;26.334;50.194;2022-10-31T16:08:33;99;98;
72793;PMS5003;63436;26.334;50.194;2022-10-31T16:10:58;108;106;
72793;PMS5003;63436;26.334;50.194;2022-10-31T16:13:24;107;102;
72793;PMS5003;63436;26.334;50.194;2022-10-31T16:15:48;109;106;
72793;PMS5003;63436;26.334;50.194;2022-10-31T16:18:14;110;98;
72793;PMS5003;63436;26.334;50.194;2022-10-31T16:20:39;106;100;
72793;PMS5003;63436;26.334;50.194;2022-10-31T16:23:05;101;97;
72793;PMS5003;63436;26.334;50.194;2022-10-31T16:25:33;95;93;
72793;PMS5003;63436;26.334;50.194;2022-10-31T16:27:57;99;92;
72793;PMS5003;63436;26.334;50.194;2022-10-31T16:30:30;96;94;